Time;durP1;ratioP1;P1;durP2;ratioP2;P2;SDS_P1;SDS_P2;PMS_P1;PMS_P2;Temp;Humidity;BMP_temperature;BMP_pressure;BME280_temperature;BME280_humidity;BME280_pressure;Samples;Min_cycle;Max_cycle;Signal;HPM_P1;HPM_P2
2023/03/24 00:02:15;;;;;;;19.10;13.70;;;;;;;10.64;100.00;99121.42;107250;1278;25386;-66
2023/03/24 00:04:46;;;;;;;17.00;12.90;;;;;;;10.62;100.00;99117.48;107156;1277;22544;-66
2023/03/24 00:07:22;;;;;;;17.80;12.40;;;;;;;10.61;100.00;99115.09;107381;1273;23282;-67
2023/03/24 00:09:52;;;;;;;18.00;12.80;;;;;;;10.61;100.00;99112.38;110286;1278;22440;-67
2023/03/24 00:12:20;;;;;;;20.10;12.90;;;;;;;10.62;100.00;99114.98;110221;1277;22400;-67
2023/03/24 00:14:53;;;;;;;20.70;13.80;;;;;;;10.65;100.00;99115.00;110273;1278;22271;-67
2023/03/24 00:17:24;;;;;;;19.20;13.40;;;;;;;10.66;100.00;99112.21;110274;1276;23338;-67
2023/03/24 00:19:54;;;;;;;17.90;13.40;;;;;;;10.70;100.00;99110.87;110293;1276;22289;-67
2023/03/24 00:22:27;;;;;;;17.20;12.20;;;;;;;10.71;100.00;99107.31;110320;1278;22425;-67
2023/03/24 00:24:55;;;;;;;18.10;12.50;;;;;;;10.73;100.00;99108.72;110222;1278;22901;-67
2023/03/24 00:27:24;;;;;;;18.00;13.30;;;;;;;10.74;100.00;99101.47;110295;1270;22485;-67
2023/03/24 00:29:53;;;;;;;21.80;13.90;;;;;;;10.74;100.00;99100.04;108812;1278;24245;-66
2023/03/24 00:32:21;;;;;;;20.30;13.20;;;;;;;10.74;100.00;99102.27;107189;1276;23094;-67
2023/03/24 00:34:51;;;;;;;17.90;13.20;;;;;;;10.71;100.00;99102.79;107395;1272;26490;-66
2023/03/24 00:37:19;;;;;;;20.80;13.60;;;;;;;10.68;100.00;99103.05;107521;1276;25551;-67
2023/03/24 00:39:49;;;;;;;20.00;12.70;;;;;;;10.65;100.00;99098.51;107293;1271;25415;-66
2023/03/24 00:42:17;;;;;;;19.90;12.80;;;;;;;10.62;100.00;99099.52;107424;1270;22540;-66
2023/03/24 00:44:46;;;;;;;20.20;13.20;;;;;;;10.59;100.00;99096.61;107405;1275;25335;-66
2023/03/24 00:47:16;;;;;;;19.30;13.40;;;;;;;10.56;100.00;99094.08;107386;1272;25787;-67
2023/03/24 00:49:45;;;;;;;20.70;13.20;;;;;;;10.53;100.00;99093.83;107487;1270;25357;-65
2023/03/24 00:52:16;;;;;;;19.20;12.40;;;;;;;10.48;100.00;99087.95;107381;1273;23673;-66
2023/03/24 00:54:47;;;;;;;16.90;12.60;;;;;;;10.44;100.00;99088.25;107367;1276;24206;-66
2023/03/24 00:57:22;;;;;;;19.90;12.90;;;;;;;10.42;100.00;99087.85;107349;1276;25179;-66
2023/03/24 00:59:51;;;;;;;19.90;13.10;;;;;;;10.39;100.00;99087.38;107190;1273;22536;-66
2023/03/24 01:02:23;;;;;;;20.00;13.20;;;;;;;10.36;100.00;99084.85;107334;1276;23861;-67
2023/03/24 01:04:58;;;;;;;20.80;12.80;;;;;;;10.34;100.00;99085.75;107546;1270;23408;-66
2023/03/24 01:07:28;;;;;;;19.40;13.30;;;;;;;10.33;100.00;99083.02;107608;1270;25387;-66
2023/03/24 01:09:58;;;;;;;20.20;13.30;;;;;;;10.32;100.00;99079.92;107501;1276;22540;-66
2023/03/24 01:12:33;;;;;;;25.90;13.80;;;;;;;10.31;100.00;99078.14;107183;1276;25359;-66
2023/03/24 01:15:05;;;;;;;24.30;13.80;;;;;;;10.31;100.00;99078.36;107359;1272;24214;-67
2023/03/24 01:17:34;;;;;;;16.60;12.40;;;;;;;10.36;100.00;99076.90;107151;1276;26504;-66
2023/03/24 01:20:10;;;;;;;17.50;12.50;;;;;;;10.37;100.00;99077.77;107280;1270;22630;-66
2023/03/24 01:22:39;;;;;;;19.50;12.90;;;;;;;10.37;100.00;99075.70;107265;1275;25555;-66
2023/03/24 01:25:17;;;;;;;18.70;12.80;;;;;;;10.37;100.00;99077.17;107226;1276;22769;-66
2023/03/24 01:27:46;;;;;;;16.60;12.50;;;;;;;10.37;100.00;99077.71;107416;1273;22677;-66
2023/03/24 01:30:16;;;;;;;22.30;13.90;;;;;;;10.35;100.00;99076.63;107332;1273;25392;-66
2023/03/24 01:32:46;;;;;;;20.40;13.50;;;;;;;10.35;100.00;99080.52;107276;1275;25463;-66
2023/03/24 01:35:17;;;;;;;21.80;12.80;;;;;;;10.33;100.00;99075.13;107335;1276;25340;-66
2023/03/24 01:37:45;;;;;;;21.10;13.70;;;;;;;10.32;100.00;99078.67;110443;1275;22474;-67
2023/03/24 01:40:17;;;;;;;20.00;13.50;;;;;;;10.31;100.00;99082.66;110421;1275;22264;-67
2023/03/24 01:42:46;;;;;;;20.00;14.00;;;;;;;10.30;100.00;99086.80;110461;1275;22386;-67
2023/03/24 01:45:50;;;;;;;18.70;13.80;;;;;;;10.30;100.00;99089.90;110435;1276;22212;-67
2023/03/24 01:48:43;;;;;;;15.60;12.80;;;;;;;10.36;100.00;99090.93;110254;1275;22945;-67
2023/03/24 01:51:27;;;;;;;21.50;13.20;;;;;;;10.38;100.00;99092.13;107288;1276;26023;-66
2023/03/24 01:54:01;;;;;;;19.10;12.70;;;;;;;10.36;100.00;99098.06;107100;1275;25371;-66
2023/03/24 01:56:32;;;;;;;19.30;13.50;;;;;;;10.33;100.00;99093.96;107395;1274;24278;-66
2023/03/24 01:59:05;;;;;;;15.70;12.30;;;;;;;10.33;100.00;99093.20;107258;1270;22540;-66
2023/03/24 02:01:43;;;;;;;20.20;13.00;;;;;;;10.32;100.00;99091.73;107428;1273;25369;-66
2023/03/24 02:04:30;;;;;;;18.00;12.10;;;;;;;10.31;100.00;99088.36;107052;1276;22573;-66
2023/03/24 02:07:09;;;;;;;17.00;12.80;;;;;;;10.34;100.00;99089.70;107346;1273;22556;-66
2023/03/24 02:09:37;;;;;;;17.60;12.50;;;;;;;10.38;100.00;99091.14;107346;1270;22531;-66
2023/03/24 02:12:06;;;;;;;16.60;12.50;;;;;;;10.41;100.00;99094.59;107220;1268;23024;-66
2023/03/24 02:14:38;;;;;;;17.80;12.70;;;;;;;10.43;100.00;99092.08;107215;1276;26391;-67
2023/03/24 02:17:24;;;;;;;17.10;12.40;;;;;;;10.44;100.00;99089.95;107143;1275;23709;-66
2023/03/24 02:20:24;;;;;;;18.20;12.90;;;;;;;10.45;100.00;99087.10;107071;1275;22872;-66
2023/03/24 02:23:19;;;;;;;20.50;13.60;;;;;;;10.46;100.00;99092.09;107092;1273;24301;-66
2023/03/24 02:26:05;;;;;;;19.50;13.00;;;;;;;10.46;100.00;99096.95;107445;1270;25945;-66
2023/03/24 02:28:58;;;;;;;19.20;13.40;;;;;;;10.47;100.00;99092.69;107209;1270;26524;-66
2023/03/24 02:31:35;;;;;;;17.50;12.30;;;;;;;10.47;100.00;99088.71;107203;1275;22768;-67
2023/03/24 02:34:11;;;;;;;17.80;12.90;;;;;;;10.45;100.00;99089.33;107297;1253;22608;-66
2023/03/24 02:36:43;;;;;;;18.00;13.20;;;;;;;10.46;100.00;99094.11;107162;1276;25362;-66
2023/03/24 02:39:15;;;;;;;18.30;11.90;;;;;;;10.46;100.00;99093.89;107098;1276;24394;-66
2023/03/24 02:42:04;;;;;;;19.80;13.20;;;;;;;10.46;100.00;99096.39;107366;1276;24514;-66
2023/03/24 02:44:41;;;;;;;20.30;13.00;;;;;;;10.47;100.00;99098.67;107493;1270;25340;-66
2023/03/24 02:47:38;;;;;;;17.60;12.80;;;;;;;10.46;100.00;99106.04;107344;1269;24400;-66
2023/03/24 02:50:12;;;;;;;18.50;12.40;;;;;;;10.46;100.00;99100.86;106653;1270;25335;-66
2023/03/24 02:52:52;;;;;;;18.70;13.20;;;;;;;10.45;100.00;99102.83;107121;1273;25454;-66
2023/03/24 02:55:30;;;;;;;16.20;12.70;;;;;;;10.44;100.00;99101.70;107145;1274;22574;-66
2023/03/24 02:58:12;;;;;;;18.40;12.20;;;;;;;10.44;100.00;99100.49;107015;1277;25491;-66
2023/03/24 03:01:05;;;;;;;16.80;12.50;;;;;;;10.49;100.00;99101.87;107036;1277;25382;-66
2023/03/24 03:03:52;;;;;;;17.60;12.00;;;;;;;10.47;100.00;99102.37;107150;1277;26159;-65
2023/03/24 03:06:30;;;;;;;19.00;11.90;;;;;;;10.43;100.00;99106.33;107050;1277;25348;-66
2023/03/24 03:09:02;;;;;;;16.20;12.50;;;;;;;10.40;100.00;99106.04;110125;1277;22211;-67
2023/03/24 03:11:31;;;;;;;19.30;13.30;;;;;;;10.39;100.00;99104.41;107696;1277;24397;-66
2023/03/24 03:14:20;;;;;;;18.10;12.30;;;;;;;10.36;100.00;99108.08;107113;1278;25380;-66
2023/03/24 03:16:53;;;;;;;20.20;13.20;;;;;;;10.33;100.00;99109.48;106970;1277;25373;-66
2023/03/24 03:19:29;;;;;;;16.60;12.90;;;;;;;10.30;100.00;99116.89;107333;1276;22652;-66
2023/03/24 03:21:58;;;;;;;15.00;11.70;;;;;;;10.29;100.00;99122.88;107118;1277;25377;-66
2023/03/24 03:24:29;;;;;;;17.40;12.50;;;;;;;10.34;100.00;99125.35;107680;1270;23439;-66
2023/03/24 03:27:21;;;;;;;17.60;12.20;;;;;;;10.35;100.00;99119.89;106833;1272;22632;-66
2023/03/24 03:29:53;;;;;;;19.70;12.40;;;;;;;10.33;100.00;99116.48;107096;1277;25410;-66
2023/03/24 03:32:27;;;;;;;18.20;13.00;;;;;;;10.32;100.00;99118.45;106823;1272;24257;-66
2023/03/24 03:35:06;;;;;;;17.80;12.40;;;;;;;10.32;100.00;99115.02;106942;1277;24467;-66
2023/03/24 03:37:45;;;;;;;19.80;13.10;;;;;;;10.30;100.00;99118.95;106972;1276;23341;-67
2023/03/24 03:40:21;;;;;;;16.50;12.00;;;;;;;10.28;100.00;99124.35;107110;1278;22558;-66
2023/03/24 03:42:53;;;;;;;18.90;12.50;;;;;;;10.27;100.00;99129.54;107262;1274;23203;-66
2023/03/24 03:45:29;;;;;;;16.40;12.10;;;;;;;10.33;100.00;99132.32;107078;1277;25363;-66
2023/03/24 03:47:58;;;;;;;18.70;12.90;;;;;;;10.34;100.00;99140.10;107257;1270;25484;-66
2023/03/24 03:50:27;;;;;;;20.10;13.30;;;;;;;10.31;100.00;99141.91;107037;1276;25374;-65
2023/03/24 03:52:57;;;;;;;20.10;12.20;;;;;;;10.30;100.00;99139.42;106979;1276;22521;-66
2023/03/24 03:55:26;;;;;;;20.50;13.60;;;;;;;10.31;100.00;99137.23;107498;1276;25301;-65
2023/03/24 03:57:55;;;;;;;17.80;12.60;;;;;;;10.33;100.00;99137.60;107478;1276;22562;-66
2023/03/24 04:00:50;;;;;;;20.40;12.50;;;;;;;10.33;100.00;99140.77;107251;1276;25487;-66
2023/03/24 04:03:43;;;;;;;15.80;11.60;;;;;;;10.35;100.00;99142.81;107280;1272;25529;-66
2023/03/24 04:06:39;;;;;;;16.80;12.70;;;;;;;10.37;100.00;99145.23;107269;1276;25334;-65
2023/03/24 04:09:23;;;;;;;16.90;13.00;;;;;;;10.34;100.00;99145.27;107190;1276;25474;-66
2023/03/24 04:12:07;;;;;;;17.80;12.30;;;;;;;10.30;100.00;99150.73;106974;1270;25413;-66
2023/03/24 04:15:24;;;;;;;16.20;12.30;;;;;;;10.27;100.00;99156.35;106999;1275;22653;-66
2023/03/24 04:18:43;;;;;;;15.80;11.00;;;;;;;10.28;100.00;99157.55;106750;1272;22757;-66
2023/03/24 04:21:41;;;;;;;20.70;13.00;;;;;;;10.33;100.00;99153.65;107182;1270;23505;-67
2023/03/24 04:24:50;;;;;;;17.90;12.70;;;;;;;10.32;100.00;99155.71;107447;1260;24244;-65
2023/03/24 04:27:37;;;;;;;21.90;13.90;;;;;;;10.32;100.00;99160.79;107302;1271;25437;-66
2023/03/24 04:30:21;;;;;;;19.50;12.80;;;;;;;10.30;100.00;99162.76;107256;1275;22589;-66
2023/03/24 04:33:06;;;;;;;17.00;12.40;;;;;;;10.30;100.00;99166.52;107234;1276;25350;-66
2023/03/24 04:35:42;;;;;;;16.90;12.50;;;;;;;10.32;100.00;99171.39;107465;1276;23472;-66
2023/03/24 04:38:37;;;;;;;19.30;12.90;;;;;;;10.39;100.00;99170.69;106962;1276;25376;-66
2023/03/24 04:41:16;;;;;;;17.90;13.10;;;;;;;10.40;100.00;99170.95;106961;1276;23859;-66
2023/03/24 04:43:50;;;;;;;17.40;12.10;;;;;;;10.39;100.00;99174.01;107079;1276;25331;-66
2023/03/24 04:46:18;;;;;;;18.90;13.30;;;;;;;10.39;100.00;99177.98;107095;1272;22642;-67
2023/03/24 04:49:05;;;;;;;18.20;12.20;;;;;;;10.41;100.00;99178.98;106721;1276;25418;-67
2023/03/24 04:51:36;;;;;;;19.30;12.80;;;;;;;10.41;100.00;99181.13;107026;1278;25364;-66
2023/03/24 04:54:13;;;;;;;19.50;12.40;;;;;;;10.43;100.00;99183.77;107079;1270;22599;-67
2023/03/24 04:56:50;;;;;;;16.00;12.00;;;;;;;10.51;100.00;99186.32;107079;1273;24404;-67
2023/03/24 04:59:24;;;;;;;17.20;11.90;;;;;;;10.54;100.00;99189.19;107185;1272;22762;-67
2023/03/24 05:01:53;;;;;;;16.50;11.90;;;;;;;10.56;100.00;99182.80;110344;1276;22287;-67
2023/03/24 05:04:56;;;;;;;17.00;12.40;;;;;;;10.61;100.00;99180.31;110204;1277;22217;-67
2023/03/24 05:07:31;;;;;;;19.10;13.00;;;;;;;10.64;100.00;99173.59;110181;1275;22336;-67
2023/03/24 05:10:03;;;;;;;20.60;12.70;;;;;;;10.69;100.00;99173.33;110200;1277;22514;-67
2023/03/24 05:12:41;;;;;;;18.00;12.80;;;;;;;10.74;100.00;99174.04;109661;1277;22611;-66
2023/03/24 05:15:30;;;;;;;18.10;12.80;;;;;;;10.80;100.00;99175.45;107067;1274;25334;-67
2023/03/24 05:18:08;;;;;;;16.50;11.80;;;;;;;10.84;100.00;99180.63;107054;1277;22635;-67
2023/03/24 05:20:37;;;;;;;15.80;11.90;;;;;;;10.95;100.00;99177.76;107080;1277;25486;-67
2023/03/24 05:23:13;;;;;;;18.90;13.60;;;;;;;11.06;100.00;99174.81;107182;1274;24625;-67
2023/03/24 05:25:45;;;;;;;20.80;13.00;;;;;;;11.11;100.00;99180.92;107341;1277;25370;-67
2023/03/24 05:28:16;;;;;;;20.00;13.10;;;;;;;11.17;100.00;99182.23;107250;1277;22522;-66
2023/03/24 05:30:44;;;;;;;18.50;13.30;;;;;;;11.26;100.00;99181.27;107498;1277;25336;-66
2023/03/24 05:33:36;;;;;;;19.10;12.80;;;;;;;11.41;100.00;99178.73;107240;1276;25571;-66
2023/03/24 05:36:06;;;;;;;20.40;12.40;;;;;;;11.53;100.00;99180.48;107125;1272;22513;-66
2023/03/24 05:38:39;;;;;;;19.40;12.70;;;;;;;11.66;100.00;99181.55;107200;1276;25379;-66
2023/03/24 05:41:08;;;;;;;15.70;11.20;;;;;;;11.78;100.00;99186.26;107040;1276;25383;-67
2023/03/24 05:43:39;;;;;;;19.20;12.70;;;;;;;11.89;100.00;99184.31;106897;1277;25373;-68
2023/03/24 05:46:12;;;;;;;17.40;12.60;;;;;;;11.95;100.00;99182.59;107031;1275;25377;-67
2023/03/24 05:48:40;;;;;;;17.80;12.60;;;;;;;12.01;100.00;99184.04;107189;1276;25500;-67
2023/03/24 05:51:22;;;;;;;18.30;12.60;;;;;;;12.11;100.00;99187.33;107441;1273;25383;-67
2023/03/24 05:53:58;;;;;;;19.20;13.10;;;;;;;12.23;100.00;99186.89;107283;1269;22513;-67
2023/03/24 05:56:39;;;;;;;19.70;12.60;;;;;;;12.36;100.00;99185.05;107973;1269;22423;-68
2023/03/24 05:59:31;;;;;;;19.70;12.90;;;;;;;12.53;100.00;99188.39;107496;1269;22524;-68
2023/03/24 06:02:08;;;;;;;18.30;12.40;;;;;;;12.78;100.00;99192.45;107371;1269;22520;-67
2023/03/24 06:05:00;;;;;;;15.90;11.80;;;;;;;13.03;100.00;99187.70;107456;1270;22520;-68
2023/03/24 06:07:31;;;;;;;17.40;12.60;;;;;;;13.16;100.00;99189.05;108454;1276;23361;-68
2023/03/24 06:10:03;;;;;;;15.30;12.10;;;;;;;13.23;100.00;99188.44;107566;1270;25334;-67
2023/03/24 06:12:40;;;;;;;15.30;11.70;;;;;;;13.24;100.00;99184.92;107267;1272;25485;-67
2023/03/24 06:15:09;;;;;;;16.10;11.50;;;;;;;13.26;100.00;99183.86;110207;1272;23144;-68
2023/03/24 06:17:41;;;;;;;18.80;11.50;;;;;;;13.27;100.00;99193.89;110325;1272;22907;-68
2023/03/24 06:20:17;;;;;;;18.40;11.40;;;;;;;13.25;100.00;99197.31;110308;1274;22339;-68
2023/03/24 06:23:02;;;;;;;18.10;12.40;;;;;;;13.17;100.00;99192.48;110345;1270;22333;-68
2023/03/24 06:25:37;;;;;;;17.00;11.80;;;;;;;13.14;100.00;99189.77;110376;1270;22348;-68
2023/03/24 06:28:33;;;;;;;17.70;12.30;;;;;;;13.10;100.00;99192.51;110208;1277;23340;-67
2023/03/24 06:31:05;;;;;;;19.50;12.20;;;;;;;13.03;100.00;99189.66;110313;1276;22469;-68
2023/03/24 06:33:37;;;;;;;19.40;12.20;;;;;;;12.99;100.00;99193.12;108294;1276;24228;-67
2023/03/24 06:36:06;;;;;;;18.30;11.50;;;;;;;12.96;100.00;99192.73;107264;1276;24219;-67
2023/03/24 06:38:39;;;;;;;18.90;11.80;;;;;;;12.90;100.00;99192.13;107377;1273;22563;-68
2023/03/24 06:41:08;;;;;;;17.80;11.90;;;;;;;12.85;100.00;99191.50;107287;1272;23403;-67
2023/03/24 06:43:37;;;;;;;18.70;12.90;;;;;;;12.88;100.00;99195.64;107351;1273;22620;-67
2023/03/24 06:46:06;;;;;;;15.40;11.30;;;;;;;12.88;100.00;99187.57;107142;1276;25376;-67
2023/03/24 06:48:35;;;;;;;17.30;11.40;;;;;;;12.85;100.00;99192.78;107256;1276;24191;-67
2023/03/24 06:51:10;;;;;;;19.40;12.20;;;;;;;12.81;100.00;99197.04;107393;1270;25344;-68
2023/03/24 06:53:40;;;;;;;24.90;13.20;;;;;;;12.81;100.00;99194.42;107617;1270;23324;-67
2023/03/24 06:56:17;;;;;;;20.30;13.00;;;;;;;12.81;100.00;99203.10;107255;1270;23176;-67
2023/03/24 06:58:50;;;;;;;17.40;11.90;;;;;;;12.79;100.00;99202.35;107063;1275;25408;-67
2023/03/24 07:01:26;;;;;;;17.10;11.40;;;;;;;12.83;100.00;99201.32;107094;1273;25487;-67
2023/03/24 07:04:05;;;;;;;15.70;11.70;;;;;;;12.91;100.00;99197.14;107106;1276;25488;-67
2023/03/24 07:06:59;;;;;;;16.80;11.60;;;;;;;12.91;100.00;99197.20;107313;1273;22608;-67
2023/03/24 07:09:53;;;;;;;17.00;11.20;;;;;;;12.89;100.00;99197.87;107347;1276;25582;-67
2023/03/24 07:12:22;;;;;;;16.80;11.80;;;;;;;12.91;100.00;99199.92;107201;1276;24209;-67
2023/03/24 07:14:51;;;;;;;17.00;11.70;;;;;;;12.94;100.00;99201.02;107249;1276;22517;-67
2023/03/24 07:17:19;;;;;;;17.40;12.40;;;;;;;12.98;100.00;99201.65;107286;1273;25558;-67
2023/03/24 07:20:07;;;;;;;16.20;11.30;;;;;;;13.05;100.00;99204.53;107239;1276;23362;-67
2023/03/24 07:22:46;;;;;;;17.20;12.40;;;;;;;13.09;100.00;99203.45;107331;1270;26516;-67
2023/03/24 07:25:24;;;;;;;15.80;10.90;;;;;;;13.11;100.00;99199.92;107306;1275;25347;-67
2023/03/24 07:28:31;;;;;;;15.40;11.00;;;;;;;13.13;100.00;99199.13;106594;1284;23263;-66
2023/03/24 07:31:03;;;;;;;19.30;11.20;;;;;;;13.15;100.00;99202.52;106695;1284;25368;-67
2023/03/24 07:33:32;;;;;;;16.90;10.90;;;;;;;13.27;100.00;99203.02;106961;1270;25371;-67
2023/03/24 07:36:01;;;;;;;17.90;11.50;;;;;;;13.34;100.00;99198.95;107286;1275;24278;-67
2023/03/24 07:38:29;;;;;;;20.10;12.60;;;;;;;13.41;100.00;99203.51;107246;1276;25297;-67
2023/03/24 07:41:02;;;;;;;14.70;10.80;;;;;;;13.50;100.00;99207.23;107280;1273;22556;-67
2023/03/24 07:43:31;;;;;;;14.80;11.40;;;;;;;13.55;100.00;99200.56;107324;1270;22551;-67
2023/03/24 07:46:32;;;;;;;17.30;11.00;;;;;;;13.61;100.00;99196.55;107271;1270;25358;-67
2023/03/24 07:49:01;;;;;;;19.70;12.20;;;;;;;13.65;100.00;99196.54;110411;1275;23119;-69
2023/03/24 07:51:47;;;;;;;17.70;11.20;;;;;;;13.71;100.00;99201.11;110437;1276;22350;-68
2023/03/24 07:54:45;;;;;;;18.10;11.00;;;;;;;13.78;100.00;99200.35;110286;1276;22514;-68
2023/03/24 07:57:29;;;;;;;17.20;11.50;;;;;;;13.82;100.00;99196.21;110476;1276;22423;-68
2023/03/24 07:59:59;;;;;;;18.00;11.30;;;;;;;13.83;100.00;99195.33;110327;1275;22229;-69
2023/03/24 08:02:52;;;;;;;17.50;11.40;;;;;;;13.85;100.00;99191.23;110495;1276;22353;-68
2023/03/24 08:05:45;;;;;;;22.20;12.20;;;;;;;13.88;100.00;99189.73;108279;1269;22558;-68
2023/03/24 08:08:30;;;;;;;18.30;12.50;;;;;;;13.88;100.00;99189.30;107207;1275;24961;-68
2023/03/24 08:10:58;;;;;;;93.10;48.30;;;;;;;13.89;100.00;99194.05;107383;1268;25225;-67
2023/03/24 08:13:27;;;;;;;199.80;97.90;;;;;;;13.92;100.00;99196.61;107997;1269;22525;-68
2023/03/24 08:15:55;;;;;;;90.70;54.80;;;;;;;13.96;100.00;99198.98;107344;1273;24206;-67
2023/03/24 08:18:33;;;;;;;45.90;28.20;;;;;;;13.98;100.00;99195.13;107309;1276;25348;-68
2023/03/24 08:21:05;;;;;;;22.30;14.20;;;;;;;13.99;100.00;99191.17;107494;1269;25385;-68
2023/03/24 08:23:35;;;;;;;18.40;12.90;;;;;;;14.01;100.00;99187.62;107368;1273;22546;-67
2023/03/24 08:26:04;;;;;;;17.40;12.70;;;;;;;14.05;100.00;99188.84;107293;1273;22617;-68
2023/03/24 08:28:33;;;;;;;22.60;13.30;;;;;;;14.07;100.00;99191.80;107342;1275;23279;-67
2023/03/24 08:31:01;;;;;;;21.30;13.30;;;;;;;14.11;100.00;99191.65;107330;1276;25347;-67
2023/03/24 08:33:33;;;;;;;17.90;12.10;;;;;;;14.16;100.00;99188.69;107311;1276;22631;-67
2023/03/24 08:36:02;;;;;;;20.80;13.60;;;;;;;14.21;100.00;99188.90;107175;1276;25568;-67
2023/03/24 08:38:31;;;;;;;16.90;12.00;;;;;;;14.29;100.00;99188.17;107335;1275;25437;-67
2023/03/24 08:41:05;;;;;;;14.20;11.00;;;;;;;14.37;100.00;99189.27;107555;1276;25338;-68
2023/03/24 08:43:35;;;;;;;18.00;11.70;;;;;;;14.48;100.00;99187.25;107347;1272;25454;-68
2023/03/24 08:46:06;;;;;;;14.70;10.70;;;;;;;14.59;100.00;99188.60;107286;1275;22699;-68
2023/03/24 08:48:39;;;;;;;14.40;11.40;;;;;;;14.68;100.00;99182.89;107315;1276;25535;-67
2023/03/24 08:51:10;;;;;;;13.50;11.20;;;;;;;14.77;100.00;99182.99;107254;1273;22665;-67
2023/03/24 08:53:40;;;;;;;15.60;11.00;;;;;;;14.88;100.00;99180.02;107660;1270;22993;-68
2023/03/24 08:56:08;;;;;;;14.70;11.50;;;;;;;15.00;100.00;99173.77;107287;1276;22550;-68
2023/03/24 08:58:38;;;;;;;16.10;11.00;;;;;;;15.14;100.00;99174.69;107261;1254;23294;-68
2023/03/24 09:01:06;;;;;;;13.00;10.90;;;;;;;15.27;100.00;99171.13;107524;1270;25494;-68
2023/03/24 09:03:38;;;;;;;15.60;11.70;;;;;;;15.42;100.00;99174.50;107380;1271;22520;-68
2023/03/24 09:06:07;;;;;;;14.90;11.70;;;;;;;15.60;100.00;99172.55;107336;1270;26560;-68
2023/03/24 09:08:35;;;;;;;15.00;11.50;;;;;;;15.73;100.00;99170.23;107458;1270;25394;-68
2023/03/24 09:11:04;;;;;;;16.30;12.20;;;;;;;15.83;100.00;99169.06;107410;1272;25404;-68
2023/03/24 09:13:33;;;;;;;14.60;11.70;;;;;;;15.87;100.00;99171.52;107159;1272;22544;-68
2023/03/24 09:16:02;;;;;;;16.10;12.00;;;;;;;15.92;100.00;99162.48;107182;1270;23024;-68
2023/03/24 09:18:30;;;;;;;16.70;12.00;;;;;;;16.00;100.00;99165.86;107315;1270;25464;-68
2023/03/24 09:21:00;;;;;;;18.20;11.80;;;;;;;16.02;100.00;99158.10;107242;1273;26550;-68
2023/03/24 09:23:30;;;;;;;15.10;11.10;;;;;;;16.03;100.00;99158.47;107301;1275;25484;-67
2023/03/24 09:25:58;;;;;;;14.10;10.90;;;;;;;16.08;100.00;99152.34;107308;1276;25369;-68
2023/03/24 09:28:27;;;;;;;17.80;10.90;;;;;;;16.13;100.00;99150.14;107277;1275;24448;-68
2023/03/24 09:30:59;;;;;;;16.20;10.90;;;;;;;16.20;100.00;99146.55;107604;1271;22985;-68
2023/03/24 09:33:29;;;;;;;14.00;10.90;;;;;;;16.31;100.00;99148.48;107285;1274;25511;-67
2023/03/24 09:35:59;;;;;;;13.50;11.00;;;;;;;16.43;100.00;99149.30;107302;1276;25527;-69
2023/03/24 09:38:32;;;;;;;16.40;11.50;;;;;;;16.54;100.00;99150.27;107298;1273;23279;-68
2023/03/24 09:41:03;;;;;;;15.90;11.30;;;;;;;16.65;100.00;99147.57;110447;1276;22885;-68
2023/03/24 09:43:39;;;;;;;14.90;11.00;;;;;;;16.78;100.00;99140.45;110441;1276;23004;-68
2023/03/24 09:46:19;;;;;;;14.00;9.70;;;;;;;16.92;100.00;99138.33;110225;1274;22241;-69
2023/03/24 09:48:51;;;;;;;16.30;10.40;;;;;;;17.13;100.00;99135.73;110282;1270;22821;-68
2023/03/24 09:51:24;;;;;;;12.40;9.60;;;;;;;17.32;100.00;99134.71;110391;1276;22211;-68
2023/03/24 09:54:30;;;;;;;12.40;9.80;;;;;;;17.49;100.00;99129.75;109115;1269;25460;-68
2023/03/24 09:56:58;;;;;;;12.50;9.20;;;;;;;17.65;100.00;99132.87;107198;1270;24209;-68
2023/03/24 09:59:28;;;;;;;11.80;9.60;;;;;;;17.79;100.00;99127.78;107292;1269;25331;-67
2023/03/24 10:01:57;;;;;;;11.30;8.30;;;;;;;17.96;100.00;99128.91;107313;1270;23304;-67
2023/03/24 10:04:26;;;;;;;14.10;9.60;;;;;;;18.01;100.00;99124.39;107063;1276;24209;-68
2023/03/24 10:07:24;;;;;;;12.90;9.80;;;;;;;18.07;100.00;99125.23;107178;1270;22536;-68
2023/03/24 10:09:55;;;;;;;;;;;;;;;18.17;100.00;99120.20;106981;1269;24275;-67
2023/03/24 10:12:36;;;;;;;13.30;9.80;;;;;;;18.16;100.00;99121.89;106961;1276;25527;-68
2023/03/24 10:15:24;;;;;;;11.60;8.80;;;;;;;18.17;100.00;99119.16;107378;1272;25349;-67
2023/03/24 10:18:11;;;;;;;13.00;8.50;;;;;;;18.24;100.00;99116.05;107217;1276;22856;-69
2023/03/24 10:21:14;;;;;;;13.20;10.00;;;;;;;18.32;100.00;99116.50;107217;1271;23366;-68
2023/03/24 10:23:43;;;;;;;14.00;8.80;;;;;;;18.48;100.00;99116.23;107399;1272;23061;-69
2023/03/24 10:26:30;;;;;;;13.30;9.50;;;;;;;18.57;100.00;99113.52;107363;1254;22577;-67
2023/03/24 10:29:05;;;;;;;14.10;9.20;;;;;;;18.65;100.00;99112.23;107216;1276;23896;-68
2023/03/24 10:31:34;;;;;;;12.30;8.70;;;;;;;18.68;100.00;99110.05;107260;1272;22522;-68
2023/03/24 10:34:03;;;;;;;11.40;8.60;;;;;;;18.69;100.00;99108.11;107128;1276;23903;-69
2023/03/24 10:36:32;;;;;;;11.00;8.70;;;;;;;18.68;100.00;99108.08;107237;1270;22516;-69
2023/03/24 10:39:00;;;;;;;11.00;8.90;;;;;;;18.71;100.00;99107.54;107303;1269;22548;-68
2023/03/24 10:41:45;;;;;;;12.40;9.00;;;;;;;18.73;100.00;99095.41;107443;1276;25331;-68
2023/03/24 10:44:16;;;;;;;13.20;8.60;;;;;;;18.69;100.00;99094.39;107279;1272;25497;-68
2023/03/24 10:46:47;;;;;;;10.30;8.70;;;;;;;18.69;100.00;99088.88;107329;1274;22579;-68
2023/03/24 10:49:18;;;;;;;12.20;8.60;;;;;;;18.71;100.00;99089.34;107551;1273;22520;-68
2023/03/24 10:51:52;;;;;;;11.60;8.60;;;;;;;18.75;100.00;99082.48;107412;1269;22645;-68
2023/03/24 10:54:24;;;;;;;10.30;7.50;;;;;;;18.83;100.00;99078.91;107263;1276;22622;-67
2023/03/24 10:56:57;;;;;;;11.20;7.60;;;;;;;18.98;100.00;99076.73;107035;1276;25350;-67
2023/03/24 10:59:27;;;;;;;11.60;7.80;;;;;;;19.15;100.00;99077.92;107681;1273;22529;-67
2023/03/24 11:02:08;;;;;;;9.70;7.10;;;;;;;19.22;100.00;99075.86;107280;1271;23279;-67
2023/03/24 11:17:11;;;;;;;10.40;6.70;;;;;;;20.41;100.00;99067.81;104503;1299;557493;-66
2023/03/24 11:19:52;;;;;;;11.20;7.80;;;;;;;20.50;100.00;99066.33;106438;1288;196665;-65
2023/03/24 11:22:21;;;;;;;10.00;7.80;;;;;;;20.29;100.00;99065.02;106542;1280;23546;-67
2023/03/24 11:24:51;;;;;;;10.40;7.90;;;;;;;20.14;100.00;99063.05;106549;1283;25363;-66
2023/03/24 11:27:20;;;;;;;12.10;6.80;;;;;;;20.01;100.00;99056.41;106724;1285;22536;-66
2023/03/24 11:29:53;;;;;;;9.70;6.90;;;;;;;19.96;100.00;99059.69;106137;1288;23711;-66
2023/03/24 11:32:26;;;;;;;13.50;8.20;;;;;;;20.00;100.00;99046.94;106469;1283;24411;-66
2023/03/24 11:35:10;;;;;;;8.70;6.20;;;;;;;20.09;100.00;99046.32;107033;1279;25357;-65
2023/03/24 11:37:40;;;;;;;7.70;5.70;;;;;;;20.14;100.00;99043.29;109836;1276;22371;-66
2023/03/24 11:40:11;;;;;;;8.20;6.10;;;;;;;20.15;100.00;99033.23;109990;1273;22366;-65
2023/03/24 11:42:44;;;;;;;8.00;5.50;;;;;;;20.09;100.00;99031.09;110032;1273;22412;-66
2023/03/24 11:45:26;;;;;;;64.70;42.90;;;;;;;19.98;100.00;99024.23;110013;1277;22389;-65
2023/03/24 11:47:57;;;;;;;14.40;7.50;;;;;;;19.92;100.00;99021.05;109961;1280;22309;-66
2023/03/24 11:50:30;;;;;;;9.20;6.00;;;;;;;19.88;100.00;99025.27;109933;1279;22322;-66
2023/03/24 11:53:06;;;;;;;39.90;22.30;;;;;;;19.89;100.00;99023.48;108885;1280;25332;-66
2023/03/24 11:55:46;;;;;;;10.20;6.10;;;;;;;19.93;100.00;99026.13;110036;1280;22428;-66